createdAt,value
2022-08-26T00:00:11.100Z,1014.84
2022-08-26T00:01:11.099Z,1014.85
2022-08-26T00:02:11.120Z,1014.82
2022-08-26T00:03:11.110Z,1014.84
2022-08-26T00:04:11.196Z,1014.81
2022-08-26T00:05:11.046Z,1014.79
2022-08-26T00:06:11.035Z,1014.81
2022-08-26T00:07:11.031Z,1014.80
2022-08-26T00:08:11.009Z,1014.80
2022-08-26T00:09:11.079Z,1014.82
2022-08-26T00:10:10.988Z,1014.81
2022-08-26T00:11:11.010Z,1014.83
2022-08-26T00:12:12.274Z,1014.82
2022-08-26T00:13:10.958Z,1014.79
2022-08-26T00:14:10.910Z,1014.80
2022-08-26T00:15:10.947Z,1014.79
2022-08-26T00:16:10.938Z,1014.79
2022-08-26T00:17:10.882Z,1014.81
2022-08-26T00:18:16.831Z,1014.79
2022-08-26T00:19:10.865Z,1014.79
2022-08-26T00:20:10.832Z,1014.80
2022-08-26T00:21:10.879Z,1014.81
2022-08-26T00:22:10.836Z,1014.81
2022-08-26T00:23:10.806Z,1014.79
2022-08-26T00:24:10.783Z,1014.82
2022-08-26T00:25:10.790Z,1014.74
2022-08-26T00:26:11.067Z,1014.75
2022-08-26T00:27:10.839Z,1014.74
2022-08-26T00:28:10.911Z,1014.77
2022-08-26T00:29:10.722Z,1014.82
2022-08-26T00:30:10.705Z,1014.79
2022-08-26T00:31:15.683Z,1014.80
2022-08-26T00:32:10.677Z,1014.81
2022-08-26T00:33:10.853Z,1014.79
2022-08-26T00:34:11.311Z,1014.79
2022-08-26T00:35:10.675Z,1014.80
2022-08-26T00:36:19.865Z,1014.78
2022-08-26T00:37:13.413Z,1014.79
2022-08-26T00:38:10.601Z,1014.77
2022-08-26T00:39:10.656Z,1014.76
2022-08-26T00:40:10.607Z,1014.75
2022-08-26T00:41:10.565Z,1014.81
2022-08-26T00:42:10.535Z,1014.79
2022-08-26T00:43:10.592Z,1014.81
2022-08-26T00:44:10.530Z,1014.81
2022-08-26T00:45:11.723Z,1014.81
2022-08-26T00:46:10.516Z,1014.79
2022-08-26T00:47:10.500Z,1014.80
2022-08-26T00:48:10.454Z,1014.79
2022-08-26T00:49:11.886Z,1014.77
2022-08-26T00:50:10.429Z,1014.79
2022-08-26T00:51:10.465Z,1014.77
2022-08-26T00:52:11.958Z,1014.76
2022-08-26T00:53:10.408Z,1014.77
2022-08-26T00:54:10.836Z,1014.79
2022-08-26T00:55:10.410Z,1014.77
2022-08-26T00:56:10.350Z,1014.83
2022-08-26T00:57:16.301Z,1014.86
2022-08-26T00:58:10.364Z,1014.83
2022-08-26T00:59:10.332Z,1014.83
2022-08-26T01:00:10.296Z,1014.84
2022-08-26T01:01:10.387Z,1014.82
2022-08-26T01:02:19.987Z,1014.86
2022-08-26T01:03:11.536Z,1014.82
2022-08-26T01:04:10.242Z,1014.82
2022-08-26T01:05:10.266Z,1014.86
2022-08-26T01:06:12.630Z,1014.83
2022-08-26T01:07:10.214Z,1014.83
2022-08-26T01:08:10.193Z,1014.78
2022-08-26T01:09:10.284Z,1014.85
2022-08-26T01:10:10.186Z,1014.80
2022-08-26T01:11:10.197Z,1014.82
2022-08-26T01:12:10.141Z,1014.83
2022-08-26T01:13:10.170Z,1014.84
2022-08-26T01:14:10.116Z,1014.85
2022-08-26T01:15:10.143Z,1014.83
2022-08-26T01:16:10.118Z,1014.81
2022-08-26T01:17:10.109Z,1014.86
2022-08-26T01:18:10.079Z,1014.83
2022-08-26T01:19:10.059Z,1014.86
2022-08-26T01:20:10.051Z,1014.88
2022-08-26T01:21:10.082Z,1014.88
2022-08-26T01:22:10.006Z,1014.90
2022-08-26T01:23:10.010Z,1014.92
2022-08-26T01:24:10.313Z,1014.91
2022-08-26T01:25:09.987Z,1014.93
2022-08-26T01:26:19.426Z,1014.92
2022-08-26T01:27:09.999Z,1014.86
2022-08-26T01:28:09.935Z,1014.90
2022-08-26T01:29:09.945Z,1014.89
2022-08-26T01:30:09.920Z,1014.91
2022-08-26T01:31:09.985Z,1014.91
2022-08-26T01:32:09.882Z,1014.92
2022-08-26T01:33:10.020Z,1014.93
2022-08-26T01:34:09.859Z,1014.94
2022-08-26T01:35:09.867Z,1014.93
2022-08-26T01:36:09.820Z,1014.94
2022-08-26T01:37:13.631Z,1014.94
2022-08-26T01:38:09.811Z,1014.92
2022-08-26T01:39:09.874Z,1014.95
2022-08-26T01:40:09.803Z,1014.97
2022-08-26T01:41:16.075Z,1014.93
2022-08-26T01:42:10.443Z,1014.95
2022-08-26T01:43:09.758Z,1014.92
2022-08-26T01:44:09.911Z,1014.93
2022-08-26T01:45:09.769Z,1014.93
2022-08-26T01:46:09.760Z,1014.89
2022-08-26T01:47:09.692Z,1014.92
2022-08-26T01:48:09.659Z,1014.90
2022-08-26T01:49:09.666Z,1014.89
2022-08-26T01:50:09.634Z,1014.91
2022-08-26T01:51:09.698Z,1014.87
2022-08-26T01:52:09.628Z,1014.82
2022-08-26T01:53:10.724Z,1014.84
2022-08-26T01:54:11.957Z,1014.85
2022-08-26T01:55:09.582Z,1014.84
2022-08-26T01:56:09.551Z,1014.85
2022-08-26T01:57:09.626Z,1014.80
2022-08-26T01:58:09.524Z,1014.82
2022-08-26T01:59:09.550Z,1014.78
2022-08-26T02:00:09.502Z,1014.80
2022-08-26T02:01:09.708Z,1014.79
2022-08-26T02:02:09.471Z,1014.79
2022-08-26T02:03:09.507Z,1014.79
2022-08-26T02:04:09.469Z,1014.82
2022-08-26T02:05:09.453Z,1014.81
2022-08-26T02:06:10.279Z,1014.82
2022-08-26T02:07:09.431Z,1014.85
2022-08-26T02:08:09.389Z,1014.85
2022-08-26T02:09:09.444Z,1014.90
2022-08-26T02:10:09.371Z,1014.87
2022-08-26T02:11:09.395Z,1014.87
2022-08-26T02:12:09.341Z,1014.89
2022-08-26T02:13:09.352Z,1014.90
2022-08-26T02:14:09.307Z,1014.92
2022-08-26T02:15:09.347Z,1014.90
2022-08-26T02:16:09.348Z,1014.88
2022-08-26T02:17:09.299Z,1014.91
2022-08-26T02:18:09.254Z,1014.86
2022-08-26T02:19:09.275Z,1014.88
2022-08-26T02:20:13.227Z,1014.86
2022-08-26T02:21:09.298Z,1014.89
2022-08-26T02:22:09.206Z,1014.87
2022-08-26T02:23:09.201Z,1014.88
2022-08-26T02:24:09.200Z,1014.88
2022-08-26T02:25:09.178Z,1014.85
2022-08-26T02:26:09.165Z,1014.85
2022-08-26T02:27:09.214Z,1014.87
2022-08-26T02:28:09.143Z,1014.88
2022-08-26T02:29:09.121Z,1014.88
2022-08-26T02:30:09.102Z,1014.86
2022-08-26T02:31:09.182Z,1014.87
2022-08-26T02:32:09.094Z,1014.91
2022-08-26T02:33:09.334Z,1014.88
2022-08-26T02:34:09.078Z,1014.89
2022-08-26T02:35:09.031Z,1014.90
2022-08-26T02:36:09.065Z,1014.89
2022-08-26T02:37:09.013Z,1014.86
2022-08-26T02:38:10.139Z,1014.88
2022-08-26T02:39:09.031Z,1014.88
2022-08-26T02:40:09.043Z,1014.92
2022-08-26T02:41:08.951Z,1014.89
2022-08-26T02:42:08.959Z,1014.93
2022-08-26T02:43:08.937Z,1014.96
2022-08-26T02:44:08.945Z,1014.98
2022-08-26T02:45:08.961Z,1014.93
2022-08-26T02:46:08.895Z,1014.94
2022-08-26T02:47:08.903Z,1014.96
2022-08-26T02:48:08.872Z,1014.94
2022-08-26T02:49:08.843Z,1014.96
2022-08-26T02:50:08.865Z,1014.96
2022-08-26T02:51:08.897Z,1014.96
2022-08-26T02:52:08.831Z,1014.94
2022-08-26T02:53:09.022Z,1014.91
2022-08-26T02:54:08.812Z,1014.90
2022-08-26T02:55:08.765Z,1014.90
2022-08-26T02:56:08.786Z,1014.88
2022-08-26T02:57:08.791Z,1014.88
2022-08-26T02:58:08.775Z,1014.91
2022-08-26T02:59:08.737Z,1014.88
2022-08-26T03:00:08.720Z,1014.86
2022-08-26T03:01:08.737Z,1014.88
2022-08-26T03:02:08.735Z,1014.84
2022-08-26T03:03:08.872Z,1014.83
2022-08-26T03:04:08.662Z,1014.82
2022-08-26T03:05:08.630Z,1014.84
2022-08-26T03:06:08.669Z,1014.82
2022-08-26T03:07:08.605Z,1014.84
2022-08-26T03:08:08.633Z,1014.84
2022-08-26T03:09:08.629Z,1014.87
2022-08-26T03:10:09.011Z,1014.80
2022-08-26T03:11:08.552Z,1014.81
2022-08-26T03:12:08.555Z,1014.81
2022-08-26T03:13:08.656Z,1014.82
2022-08-26T03:14:08.539Z,1014.88
2022-08-26T03:15:17.430Z,1014.82
2022-08-26T03:16:08.532Z,1014.81
2022-08-26T03:17:08.476Z,1014.83
2022-08-26T03:18:08.495Z,1014.80
2022-08-26T03:19:08.464Z,1014.82
2022-08-26T03:20:08.453Z,1014.80
2022-08-26T03:21:08.459Z,1014.89
2022-08-26T03:22:08.440Z,1014.84
2022-08-26T03:23:08.577Z,1014.85
2022-08-26T03:24:08.391Z,1014.86
2022-08-26T03:25:08.390Z,1014.87
2022-08-26T03:26:08.431Z,1014.81
2022-08-26T03:27:08.374Z,1014.84
2022-08-26T03:28:09.551Z,1014.82
2022-08-26T03:29:08.323Z,1014.81
2022-08-26T03:30:08.311Z,1014.81
2022-08-26T03:31:08.360Z,1014.79
2022-08-26T03:32:08.286Z,1014.83
2022-08-26T03:33:08.401Z,1014.86
2022-08-26T03:34:08.262Z,1014.84
2022-08-26T03:35:08.236Z,1014.85
2022-08-26T03:36:08.245Z,1014.83
2022-08-26T03:37:08.216Z,1014.83
2022-08-26T03:38:08.271Z,1014.81
2022-08-26T03:39:08.193Z,1014.82
2022-08-26T03:40:08.243Z,1014.82
2022-08-26T03:41:08.152Z,1014.80
2022-08-26T03:42:08.191Z,1014.80
2022-08-26T03:43:09.487Z,1014.79
2022-08-26T03:44:08.224Z,1014.83
2022-08-26T03:45:08.118Z,1014.78
2022-08-26T03:46:08.191Z,1014.76
2022-08-26T03:47:08.083Z,1014.82
2022-08-26T03:48:08.099Z,1014.77
2022-08-26T03:49:08.042Z,1014.77
2022-08-26T03:50:08.098Z,1014.80
2022-08-26T03:51:08.045Z,1014.75
2022-08-26T03:52:08.029Z,1014.75
2022-08-26T03:53:13.233Z,1014.74
2022-08-26T03:54:08.307Z,1014.74
2022-08-26T03:55:07.964Z,1014.78
2022-08-26T03:56:07.998Z,1014.80
2022-08-26T03:57:07.956Z,1014.79
2022-08-26T03:58:07.944Z,1014.85
2022-08-26T03:59:07.929Z,1014.82
2022-08-26T04:00:07.912Z,1014.86
2022-08-26T04:01:07.883Z,1014.86
2022-08-26T04:02:08.611Z,1014.84
2022-08-26T04:03:09.947Z,1014.84
2022-08-26T04:04:07.841Z,1014.88
2022-08-26T04:05:07.782Z,1014.88
2022-08-26T04:06:07.779Z,1014.87
2022-08-26T04:07:07.756Z,1014.83
2022-08-26T04:08:07.803Z,1014.84
2022-08-26T04:09:07.768Z,1014.80
2022-08-26T04:10:07.724Z,1014.77
2022-08-26T04:11:07.713Z,1014.81
2022-08-26T04:12:07.704Z,1014.85
2022-08-26T04:13:07.842Z,1014.84
2022-08-26T04:14:07.743Z,1014.82
2022-08-26T04:15:07.667Z,1014.84
2022-08-26T04:16:07.662Z,1014.85
2022-08-26T04:17:07.634Z,1014.84
2022-08-26T04:18:07.622Z,1014.82
2022-08-26T04:19:07.699Z,1014.85
2022-08-26T04:20:07.668Z,1014.87
2022-08-26T04:21:08.000Z,1014.88
2022-08-26T04:22:07.563Z,1014.87
2022-08-26T04:23:07.711Z,1014.87
2022-08-26T04:24:11.381Z,1014.87
2022-08-26T04:25:07.506Z,1014.88
2022-08-26T04:26:07.624Z,1014.82
2022-08-26T04:27:08.205Z,1014.77
2022-08-26T04:28:07.486Z,1014.73
2022-08-26T04:29:07.462Z,1014.76
2022-08-26T04:30:07.477Z,1014.78
2022-08-26T04:31:07.515Z,1014.75
2022-08-26T04:32:07.500Z,1014.77
2022-08-26T04:33:13.001Z,1014.75
2022-08-26T04:34:07.407Z,1014.74
2022-08-26T04:35:07.377Z,1014.73
2022-08-26T04:36:07.448Z,1014.69
2022-08-26T04:37:07.377Z,1014.72
2022-08-26T04:38:07.391Z,1014.73
2022-08-26T04:39:07.342Z,1014.73
2022-08-26T04:40:07.342Z,1014.71
2022-08-26T04:41:07.300Z,1014.72
2022-08-26T04:42:07.303Z,1014.73
2022-08-26T04:43:07.388Z,1014.76
2022-08-26T04:44:07.321Z,1014.75
2022-08-26T04:45:09.995Z,1014.76
2022-08-26T04:46:07.271Z,1014.79
2022-08-26T04:47:07.239Z,1014.80
2022-08-26T04:48:07.245Z,1014.82
2022-08-26T04:49:07.199Z,1014.79
2022-08-26T04:50:07.489Z,1014.78
2022-08-26T04:51:07.184Z,1014.79
2022-08-26T04:52:07.164Z,1014.80
2022-08-26T04:53:07.315Z,1014.79
2022-08-26T04:54:07.255Z,1014.78
2022-08-26T04:55:08.442Z,1014.79
2022-08-26T04:56:07.144Z,1014.80
2022-08-26T04:57:07.101Z,1014.79
2022-08-26T04:58:07.079Z,1014.79
2022-08-26T04:59:07.271Z,1014.79
2022-08-26T05:00:07.066Z,1014.81
2022-08-26T05:01:07.049Z,1014.83
2022-08-26T05:02:07.335Z,1014.82
2022-08-26T05:03:07.208Z,1014.83
2022-08-26T05:04:08.208Z,1014.84
2022-08-26T05:05:07.010Z,1014.86
2022-08-26T05:06:06.981Z,1014.84
2022-08-26T05:07:06.963Z,1014.83
2022-08-26T05:08:06.988Z,1014.87
2022-08-26T05:09:06.943Z,1014.86
2022-08-26T05:10:08.739Z,1014.85
2022-08-26T05:11:06.929Z,1014.83
2022-08-26T05:12:06.931Z,1014.88
2022-08-26T05:13:11.154Z,1014.89
2022-08-26T05:14:06.923Z,1014.86
2022-08-26T05:15:06.871Z,1014.90
2022-08-26T05:16:06.893Z,1014.88
2022-08-26T05:17:06.854Z,1014.89
2022-08-26T05:18:06.854Z,1014.89
2022-08-26T05:19:06.803Z,1014.84
2022-08-26T05:20:06.832Z,1014.82
2022-08-26T05:21:06.783Z,1014.85
2022-08-26T05:22:06.778Z,1014.84
2022-08-26T05:23:06.918Z,1014.87
2022-08-26T05:24:06.740Z,1014.86
2022-08-26T05:25:06.712Z,1014.87
2022-08-26T05:26:06.749Z,1014.86
2022-08-26T05:27:11.451Z,1014.87
2022-08-26T05:28:06.687Z,1014.80
2022-08-26T05:29:06.657Z,1014.88
2022-08-26T05:30:06.664Z,1014.86
2022-08-26T05:31:06.691Z,1014.85
2022-08-26T05:32:06.671Z,1014.84
2022-08-26T05:33:06.619Z,1014.86
2022-08-26T05:34:06.990Z,1014.86
2022-08-26T05:35:08.883Z,1014.84
2022-08-26T05:36:06.586Z,1014.85
2022-08-26T05:37:06.559Z,1014.85
2022-08-26T05:38:11.804Z,1014.86
2022-08-26T05:39:06.527Z,1014.83
2022-08-26T05:40:06.583Z,1014.82
2022-08-26T05:41:06.503Z,1014.82
2022-08-26T05:42:06.497Z,1014.81
2022-08-26T05:43:06.477Z,1014.84
2022-08-26T05:44:06.540Z,1014.83
2022-08-26T05:45:06.459Z,1014.87
2022-08-26T05:46:06.640Z,1014.86
2022-08-26T05:47:06.432Z,1014.90
2022-08-26T05:48:06.435Z,1014.87
2022-08-26T05:49:06.414Z,1014.91
2022-08-26T05:50:06.427Z,1014.95
2022-08-26T05:51:06.390Z,1014.92
2022-08-26T05:52:06.377Z,1014.93
2022-08-26T05:53:06.397Z,1014.88
2022-08-26T05:54:06.363Z,1014.89
2022-08-26T05:55:06.329Z,1014.92
2022-08-26T05:56:06.391Z,1014.95
2022-08-26T05:57:06.293Z,1014.93
2022-08-26T05:58:06.303Z,1014.97
2022-08-26T05:59:06.258Z,1014.99
2022-08-26T06:00:06.268Z,1014.96
2022-08-26T06:01:06.253Z,1014.96
2022-08-26T06:02:06.316Z,1014.98
2022-08-26T06:03:06.286Z,1014.96
2022-08-26T06:04:06.217Z,1015.01
2022-08-26T06:05:06.183Z,1015.06
2022-08-26T06:06:06.184Z,1015.03
2022-08-26T06:07:06.179Z,1015.05
2022-08-26T06:08:06.188Z,1015.06
2022-08-26T06:09:06.123Z,1015.07
2022-08-26T06:10:31.049Z,1015.09
2022-08-26T06:11:06.113Z,1015.08
2022-08-26T06:12:06.103Z,1015.10
2022-08-26T06:13:11.872Z,1015.06
2022-08-26T06:14:06.117Z,1015.04
2022-08-26T06:15:06.046Z,1015.04
2022-08-26T06:16:06.063Z,1015.03
2022-08-26T06:17:06.032Z,1015.07
2022-08-26T06:18:06.026Z,1015.04
2022-08-26T06:19:10.979Z,1015.08
2022-08-26T06:20:06.034Z,1015.10
2022-08-26T06:21:05.969Z,1015.09
2022-08-26T06:22:05.967Z,1015.11
2022-08-26T06:23:05.944Z,1015.12
2022-08-26T06:24:05.941Z,1015.10
2022-08-26T06:25:05.924Z,1015.08
2022-08-26T06:26:05.949Z,1015.09
2022-08-26T06:27:05.890Z,1015.09
2022-08-26T06:28:05.889Z,1015.05
2022-08-26T06:29:05.863Z,1015.03
2022-08-26T06:30:05.865Z,1015.06
2022-08-26T06:31:05.944Z,1015.09
2022-08-26T06:32:05.880Z,1015.08
2022-08-26T06:33:05.818Z,1015.10
2022-08-26T06:34:10.389Z,1015.13
2022-08-26T06:35:05.788Z,1015.13
2022-08-26T06:36:05.943Z,1015.13
2022-08-26T06:37:05.803Z,1015.15
2022-08-26T06:38:05.793Z,1015.16
2022-08-26T06:39:05.743Z,1015.15
2022-08-26T06:40:05.782Z,1015.17
2022-08-26T06:41:05.713Z,1015.18
2022-08-26T06:42:06.121Z,1015.18
2022-08-26T06:43:05.688Z,1015.17
2022-08-26T06:44:05.758Z,1015.14
2022-08-26T06:45:05.669Z,1015.13
2022-08-26T06:46:05.747Z,1015.16
2022-08-26T06:47:05.638Z,1015.17
2022-08-26T06:48:05.615Z,1015.19
2022-08-26T06:49:05.614Z,1015.18
2022-08-26T06:50:05.643Z,1015.21
2022-08-26T06:51:05.615Z,1015.20
2022-08-26T06:52:05.568Z,1015.17
2022-08-26T06:53:05.587Z,1015.20
2022-08-26T06:54:05.549Z,1015.17
2022-08-26T06:55:05.543Z,1015.17
2022-08-26T06:56:05.602Z,1015.17
2022-08-26T06:57:05.515Z,1015.16
2022-08-26T06:58:05.483Z,1015.17
2022-08-26T06:59:07.159Z,1015.16
2022-08-26T07:00:05.467Z,1015.17
2022-08-26T07:01:11.193Z,1015.16
2022-08-26T07:02:05.521Z,1015.19
2022-08-26T07:03:05.533Z,1015.18
2022-08-26T07:05:00.477Z,1015.21
2022-08-26T07:06:01.432Z,1015.21
2022-08-26T07:07:01.428Z,1015.20
2022-08-26T07:08:01.431Z,1015.16
2022-08-26T07:09:01.400Z,1015.18
2022-08-26T07:10:01.593Z,1015.17
2022-08-26T07:11:01.374Z,1015.19
2022-08-26T07:12:01.420Z,1015.16
2022-08-26T07:13:01.364Z,1015.19
2022-08-26T07:14:01.410Z,1015.16
2022-08-26T07:15:01.339Z,1015.22
2022-08-26T07:16:02.949Z,1015.17
2022-08-26T07:17:01.305Z,1015.22
2022-08-26T07:18:01.271Z,1015.19
2022-08-26T07:19:01.291Z,1015.20
2022-08-26T07:20:01.300Z,1015.23
2022-08-26T07:21:01.260Z,1015.25
2022-08-26T07:22:01.227Z,1015.22
2022-08-26T07:23:01.472Z,1015.24
2022-08-26T07:24:01.700Z,1015.28
2022-08-26T07:25:01.347Z,1015.30
2022-08-26T07:26:01.223Z,1015.29
2022-08-26T07:27:01.171Z,1015.30
2022-08-26T07:28:01.174Z,1015.29
2022-08-26T07:29:01.145Z,1015.29
2022-08-26T07:30:01.134Z,1015.26
2022-08-26T07:31:01.235Z,1015.29
2022-08-26T07:32:01.123Z,1015.29
2022-08-26T07:33:01.094Z,1015.30
2022-08-26T07:34:01.054Z,1015.27
2022-08-26T07:35:01.093Z,1015.27
2022-08-26T07:36:01.030Z,1015.29
2022-08-26T07:37:01.069Z,1015.36
2022-08-26T07:38:01.078Z,1015.36
2022-08-26T07:39:01.013Z,1015.32
2022-08-26T07:40:01.014Z,1015.33
2022-08-26T07:41:01.077Z,1015.34
2022-08-26T07:42:00.952Z,1015.39
2022-08-26T07:43:01.032Z,1015.39
2022-08-26T07:44:01.047Z,1015.40
2022-08-26T07:45:00.925Z,1015.44
2022-08-26T07:46:00.900Z,1015.39
2022-08-26T07:47:00.904Z,1015.39
2022-08-26T07:48:00.872Z,1015.37
2022-08-26T07:49:00.961Z,1015.37
2022-08-26T07:50:00.896Z,1015.38
2022-08-26T07:51:00.897Z,1015.38
2022-08-26T07:52:00.996Z,1015.42
2022-08-26T07:53:00.827Z,1015.43
2022-08-26T07:54:00.808Z,1015.38
2022-08-26T07:55:00.800Z,1015.36
2022-08-26T07:56:00.830Z,1015.41
2022-08-26T07:57:00.785Z,1015.36
2022-08-26T07:58:00.758Z,1015.40
2022-08-26T07:59:00.750Z,1015.40
2022-08-26T08:00:00.740Z,1015.37
2022-08-26T08:01:00.810Z,1015.32
2022-08-26T08:02:00.828Z,1015.34
2022-08-26T08:03:00.726Z,1015.39
2022-08-26T08:04:00.669Z,1015.35
2022-08-26T08:05:00.807Z,1015.37
2022-08-26T08:06:00.689Z,1015.38
2022-08-26T08:07:00.645Z,1015.40
2022-08-26T08:08:00.859Z,1015.42
2022-08-26T08:09:00.629Z,1015.41
2022-08-26T08:10:00.601Z,1015.35
2022-08-26T08:11:00.592Z,1015.42
2022-08-26T08:12:00.555Z,1015.40
2022-08-26T08:13:00.589Z,1015.35
2022-08-26T08:14:00.566Z,1015.40
2022-08-26T08:15:00.556Z,1015.41
2022-08-26T08:16:00.522Z,1015.44
2022-08-26T08:17:00.657Z,1015.48
2022-08-26T08:18:01.012Z,1015.44
2022-08-26T08:19:01.156Z,1015.46
2022-08-26T08:20:05.567Z,1015.46
2022-08-26T08:21:21.133Z,1015.42
2022-08-26T08:22:00.466Z,1015.45
2022-08-26T08:23:00.477Z,1015.46
2022-08-26T08:24:00.424Z,1015.47
2022-08-26T08:25:00.436Z,1015.43
2022-08-26T08:26:00.440Z,1015.42
2022-08-26T08:27:00.404Z,1015.46
2022-08-26T08:28:00.372Z,1015.43
2022-08-26T08:29:00.371Z,1015.44
2022-08-26T08:30:00.340Z,1015.50
2022-08-26T08:31:00.467Z,1015.42
2022-08-26T08:32:00.426Z,1015.47
2022-08-26T08:33:00.337Z,1015.46
2022-08-26T08:34:00.275Z,1015.43
2022-08-26T08:35:00.308Z,1015.47
2022-08-26T08:36:00.260Z,1015.43
2022-08-26T08:37:00.272Z,1015.44
2022-08-26T08:38:00.255Z,1015.44
2022-08-26T08:39:00.231Z,1015.47
2022-08-26T08:40:00.324Z,1015.44
2022-08-26T08:41:00.207Z,1015.43
2022-08-26T08:42:00.181Z,1015.48
2022-08-26T08:43:00.232Z,1015.46
2022-08-26T08:44:00.201Z,1015.45
2022-08-26T08:45:00.159Z,1015.44
2022-08-26T08:46:00.156Z,1015.41
2022-08-26T08:47:00.138Z,1015.42
2022-08-26T08:48:00.109Z,1015.44
2022-08-26T08:49:00.118Z,1015.43
2022-08-26T08:50:00.194Z,1015.49
2022-08-26T08:51:00.099Z,1015.47
2022-08-26T08:52:00.062Z,1015.48
2022-08-26T08:53:00.062Z,1015.49
2022-08-26T08:54:00.028Z,1015.49
2022-08-26T08:55:00.034Z,1015.47
2022-08-26T08:56:00.038Z,1015.48
2022-08-26T08:57:00.011Z,1015.46
2022-08-26T08:58:02.423Z,1015.45
2022-08-26T08:58:59.999Z,1015.47
2022-08-26T08:59:59.946Z,1015.49
2022-08-26T09:01:00.023Z,1015.48
2022-08-26T09:02:00.053Z,1015.50
2022-08-26T09:02:59.946Z,1015.51
2022-08-26T09:03:59.917Z,1015.45
2022-08-26T09:04:59.924Z,1015.47
2022-08-26T09:05:59.869Z,1015.50
2022-08-26T09:06:59.884Z,1015.45
2022-08-26T09:07:59.916Z,1015.47
2022-08-26T09:08:59.852Z,1015.44
2022-08-26T09:09:59.820Z,1015.46
2022-08-26T09:10:59.851Z,1015.45
2022-08-26T09:11:59.794Z,1015.52
2022-08-26T09:12:59.805Z,1015.52
2022-08-26T09:14:00.356Z,1015.51
2022-08-26T09:14:59.809Z,1015.47
2022-08-26T09:15:59.766Z,1015.51
2022-08-26T09:16:59.812Z,1015.49
2022-08-26T09:17:59.744Z,1015.53
2022-08-26T09:18:59.788Z,1015.52
2022-08-26T09:19:59.728Z,1015.51
2022-08-26T09:20:59.724Z,1015.50
2022-08-26T09:21:59.674Z,1015.48
2022-08-26T09:22:59.726Z,1015.49
2022-08-26T09:23:59.645Z,1015.47
2022-08-26T09:24:59.672Z,1015.51
2022-08-26T09:25:59.693Z,1015.49
2022-08-26T09:26:59.622Z,1015.49
2022-08-26T09:27:59.622Z,1015.48
2022-08-26T09:28:59.626Z,1015.46
2022-08-26T09:29:59.606Z,1015.44
2022-08-26T09:30:59.662Z,1015.47
2022-08-26T09:31:59.617Z,1015.46
2022-08-26T09:32:59.550Z,1015.42
2022-08-26T09:33:59.532Z,1015.47
2022-08-26T09:34:59.547Z,1015.47
2022-08-26T09:35:59.494Z,1015.44
2022-08-26T09:36:59.529Z,1015.48
2022-08-26T09:37:59.534Z,1015.50
2022-08-26T09:38:59.493Z,1015.51
2022-08-26T09:39:59.477Z,1015.55
2022-08-26T09:40:59.693Z,1015.52
2022-08-26T09:41:59.442Z,1015.56
2022-08-26T09:42:59.440Z,1015.59
2022-08-26T09:43:59.435Z,1015.59
2022-08-26T09:44:59.483Z,1015.62
2022-08-26T09:45:59.873Z,1015.64
2022-08-26T09:46:59.384Z,1015.62
2022-08-26T09:48:01.386Z,1015.63
2022-08-26T09:48:59.349Z,1015.61
2022-08-26T09:49:59.370Z,1015.57
2022-08-26T09:50:59.328Z,1015.54
2022-08-26T09:51:59.293Z,1015.53
2022-08-26T09:52:59.312Z,1015.53
2022-08-26T09:53:59.340Z,1015.50
2022-08-26T09:54:59.297Z,1015.50
2022-08-26T09:55:59.287Z,1015.46
2022-08-26T09:56:59.264Z,1015.43
2022-08-26T09:58:03.608Z,1015.43
2022-08-26T09:58:59.227Z,1015.36
2022-08-26T09:59:59.193Z,1015.40
2022-08-26T10:00:59.404Z,1015.35
2022-08-26T10:01:59.289Z,1015.35
2022-08-26T10:02:59.167Z,1015.39
2022-08-26T10:03:59.176Z,1015.39
2022-08-26T10:04:59.178Z,1015.36
2022-08-26T10:05:59.144Z,1015.39
2022-08-26T10:06:59.143Z,1015.34
2022-08-26T10:07:59.603Z,1015.33
2022-08-26T10:08:59.125Z,1015.33
2022-08-26T10:09:59.066Z,1015.28
2022-08-26T10:10:59.087Z,1015.30
2022-08-26T10:11:59.056Z,1015.26
2022-08-26T10:12:59.085Z,1015.28
2022-08-26T10:13:59.071Z,1015.25
2022-08-26T10:14:59.048Z,1015.30
2022-08-26T10:15:58.988Z,1015.28
2022-08-26T10:16:59.041Z,1015.25
2022-08-26T10:17:58.992Z,1015.27
2022-08-26T10:19:00.293Z,1015.20
2022-08-26T10:19:59.029Z,1015.19
2022-08-26T10:20:58.982Z,1015.17
2022-08-26T10:21:58.909Z,1015.18
2022-08-26T10:22:58.927Z,1015.11
2022-08-26T10:23:58.896Z,1015.13
2022-08-26T10:24:58.920Z,1015.12
2022-08-26T10:25:59.321Z,1015.10
2022-08-26T10:26:58.904Z,1015.16
2022-08-26T10:27:58.878Z,1015.14
2022-08-26T10:28:58.841Z,1015.11
2022-08-26T10:29:58.810Z,1015.13
2022-08-26T10:30:58.835Z,1015.07
2022-08-26T10:32:03.635Z,1015.11
2022-08-26T10:32:58.820Z,1015.11
2022-08-26T10:34:00.320Z,1015.10
2022-08-26T10:34:58.784Z,1015.09
2022-08-26T10:35:58.746Z,1015.11
2022-08-26T10:37:13.761Z,1015.10
2022-08-26T10:37:58.766Z,1015.13
2022-08-26T10:38:58.728Z,1015.16
2022-08-26T10:39:59.294Z,1015.14
2022-08-26T10:40:58.690Z,1015.17
2022-08-26T10:41:58.669Z,1015.13
2022-08-26T10:42:58.685Z,1015.13
2022-08-26T10:43:58.716Z,1015.05
2022-08-26T10:44:58.883Z,1015.08
2022-08-26T10:45:58.657Z,1015.08
2022-08-26T10:46:58.621Z,1015.11
2022-08-26T10:47:58.590Z,1015.06
2022-08-26T10:48:59.997Z,1015.05
2022-08-26T10:50:02.877Z,1015.08
2022-08-26T10:50:58.626Z,1015.07
2022-08-26T10:51:58.573Z,1015.09
2022-08-26T10:52:58.520Z,1015.07
2022-08-26T10:53:58.538Z,1015.05
2022-08-26T10:54:58.501Z,1015.01
2022-08-26T10:55:58.525Z,1014.99
2022-08-26T10:56:58.471Z,1014.99
2022-08-26T10:57:58.518Z,1014.96
2022-08-26T10:58:58.446Z,1014.92
2022-08-26T10:59:58.457Z,1015.07
2022-08-26T11:00:58.538Z,1015.05
2022-08-26T11:01:58.469Z,1015.02
2022-08-26T11:02:58.488Z,1015.03
2022-08-26T11:03:58.496Z,1014.97
2022-08-26T11:04:58.387Z,1014.94
2022-08-26T11:05:58.390Z,1014.94
2022-08-26T11:06:58.372Z,1014.92
2022-08-26T11:07:58.469Z,1014.93
2022-08-26T11:08:58.319Z,1014.94
2022-08-26T11:09:58.333Z,1014.91
2022-08-26T11:10:59.035Z,1014.91
2022-08-26T11:11:58.334Z,1014.99
2022-08-26T11:12:58.297Z,1015.02
2022-08-26T11:13:58.323Z,1014.93
2022-08-26T11:14:59.190Z,1014.91
2022-08-26T11:15:58.285Z,1015.00
2022-08-26T11:16:58.290Z,1014.99
2022-08-26T11:17:58.217Z,1014.96
2022-08-26T11:18:58.219Z,1014.91
2022-08-26T11:20:01.936Z,1014.96
2022-08-26T11:20:58.181Z,1014.94
2022-08-26T11:21:58.176Z,1014.94
2022-08-26T11:22:59.511Z,1014.98
2022-08-26T11:23:58.184Z,1014.96
2022-08-26T11:24:58.134Z,1014.97
2022-08-26T11:25:58.205Z,1014.96
2022-08-26T11:26:58.119Z,1014.98
2022-08-26T11:27:58.112Z,1014.95
2022-08-26T11:28:58.071Z,1014.98
2022-08-26T11:29:58.068Z,1014.99
2022-08-26T11:30:58.490Z,1014.96
2022-08-26T11:31:58.269Z,1014.98
2022-08-26T11:32:58.030Z,1014.99
2022-08-26T11:33:58.055Z,1015.01
2022-08-26T11:34:58.354Z,1015.00
2022-08-26T11:35:58.022Z,1015.06
2022-08-26T11:36:57.970Z,1015.04
2022-08-26T11:37:57.992Z,1015.03
2022-08-26T11:38:57.960Z,1015.05
2022-08-26T11:39:58.017Z,1015.04
2022-08-26T11:40:57.911Z,1015.07
2022-08-26T11:41:58.000Z,1015.00
2022-08-26T11:42:57.899Z,1015.02
2022-08-26T11:43:57.907Z,1015.06
2022-08-26T11:44:58.259Z,1015.07
2022-08-26T11:45:57.924Z,1015.03
2022-08-26T11:46:57.844Z,1015.07
2022-08-26T11:47:57.862Z,1015.06
2022-08-26T11:48:57.848Z,1015.03
2022-08-26T11:49:57.849Z,1015.01
2022-08-26T11:50:57.778Z,1015.05
2022-08-26T11:51:57.856Z,1015.07
2022-08-26T11:52:57.798Z,1015.12
2022-08-26T11:53:57.756Z,1015.07
2022-08-26T11:54:57.777Z,1015.10
2022-08-26T11:55:57.764Z,1015.07
2022-08-26T11:56:57.704Z,1015.06
2022-08-26T11:57:57.743Z,1015.01
2022-08-26T11:58:57.752Z,1014.99
2022-08-26T11:59:57.702Z,1014.97
2022-08-26T12:00:57.667Z,1014.98
2022-08-26T12:01:57.661Z,1014.98
2022-08-26T12:02:57.648Z,1014.98
2022-08-26T12:03:58.483Z,1014.96
2022-08-26T12:04:57.608Z,1014.93
2022-08-26T12:05:57.623Z,1014.96